Time;durP1;ratioP1;P1;durP2;ratioP2;P2;SDS_P1;SDS_P2;PMS_P1;PMS_P2;Temp;Humidity;BMP_temperature;BMP_pressure;BME280_temperature;BME280_humidity;BME280_pressure;Samples;Min_cycle;Max_cycle;Signal;HPM_P1;HPM_P2
2022/07/08 00:01:35;;;;;;;7.68;4.60;;;;;;;16.31;63.76;101809.09;5044728;28;20092;-47
2022/07/08 00:04:02;;;;;;;7.13;4.55;;;;;;;16.28;63.31;101813.47;5047489;28;20053;-46
2022/07/08 00:06:29;;;;;;;9.80;4.18;;;;;;;16.25;63.75;101810.84;5046884;28;20044;-45
2022/07/08 00:08:56;;;;;;;8.75;4.53;;;;;;;16.23;63.96;101804.72;5043750;28;20047;-47
2022/07/08 00:11:23;;;;;;;9.90;5.13;;;;;;;16.18;64.09;101800.34;5044761;28;20110;-47
2022/07/08 00:13:50;;;;;;;7.60;4.35;;;;;;;16.14;64.04;101800.38;5043521;28;20585;-49
2022/07/08 00:16:16;;;;;;;9.15;4.53;;;;;;;16.13;64.35;101801.22;5042132;28;20046;-48
2022/07/08 00:18:43;;;;;;;8.20;4.90;;;;;;;16.11;64.24;101790.75;5043878;28;20091;-47
2022/07/08 00:21:10;;;;;;;8.18;4.10;;;;;;;16.08;64.79;101788.16;5041792;28;20106;-46
2022/07/08 00:23:37;;;;;;;10.27;4.47;;;;;;;16.06;64.56;101782.03;5041701;28;20052;-46
2022/07/08 00:26:04;;;;;;;7.95;4.35;;;;;;;16.02;64.77;101785.53;5041543;28;20410;-49
2022/07/08 00:28:30;;;;;;;10.48;3.90;;;;;;;15.98;64.84;101779.44;5040038;28;20053;-47
2022/07/08 00:30:57;;;;;;;9.00;4.00;;;;;;;15.96;64.93;101788.09;5042442;28;20056;-45
2022/07/08 00:33:24;;;;;;;10.45;4.25;;;;;;;15.91;64.92;101778.47;5041671;28;20049;-46
2022/07/08 00:35:51;;;;;;;7.88;4.68;;;;;;;15.89;65.21;101790.69;5042532;28;20045;-47
2022/07/08 00:38:17;;;;;;;7.00;4.10;;;;;;;15.86;65.01;101784.56;5038205;28;20065;-46
2022/07/08 00:40:44;;;;;;;8.80;4.57;;;;;;;15.83;64.99;101795.88;5047100;28;20095;-47
2022/07/08 00:43:51;;;;;;;8.30;4.72;;;;;;;15.75;65.50;101808.03;5040286;28;20488;-49
2022/07/08 00:51:33;;;;;;;9.93;4.63;;;;;;;15.75;65.43;101793.25;5017404;28;20411;-46
2022/07/08 00:54:00;;;;;;;7.10;4.22;;;;;;;15.74;65.56;101793.25;5001051;28;20070;-49
2022/07/08 00:56:27;;;;;;;8.25;4.53;;;;;;;15.71;65.79;101786.28;5000485;28;20482;-47
2022/07/08 00:58:55;;;;;;;7.82;5.15;;;;;;;15.68;66.03;101791.47;5003131;28;20050;-47
2022/07/08 01:01:22;;;;;;;7.82;5.28;;;;;;;15.66;65.65;101804.53;4999541;28;20042;-46
2022/07/08 01:03:49;;;;;;;9.35;4.63;;;;;;;15.64;65.90;101795.81;4999550;28;20052;-47
2022/07/08 01:06:16;;;;;;;9.88;4.65;;;;;;;15.60;65.84;101786.22;4998783;28;20046;-46
2022/07/08 01:08:43;;;;;;;8.32;4.32;;;;;;;15.59;66.56;101797.53;5004672;28;20049;-47
2022/07/08 01:11:10;;;;;;;8.60;4.57;;;;;;;15.57;66.08;101787.97;4997415;28;20047;-46
2022/07/08 01:13:38;;;;;;;10.02;5.25;;;;;;;15.56;66.23;101794.91;5000235;28;20413;-45
2022/07/08 01:16:05;;;;;;;7.40;4.68;;;;;;;15.52;65.95;101785.31;4997573;28;20049;-49
2022/07/08 01:18:32;;;;;;;9.00;5.10;;;;;;;15.49;66.07;101787.91;5005872;28;20046;-47
2022/07/08 01:21:00;;;;;;;8.35;4.70;;;;;;;15.44;66.16;101789.63;4994972;28;20053;-45
2022/07/08 01:23:27;;;;;;;9.07;5.57;;;;;;;15.40;66.05;101781.78;4989806;28;20941;-48
2022/07/08 01:25:54;;;;;;;10.07;4.40;;;;;;;15.40;66.09;101787.00;4995485;28;20054;-46
2022/07/08 01:28:21;;;;;;;8.63;4.43;;;;;;;15.37;66.15;101786.97;4992084;28;20047;-45
2022/07/08 01:30:48;;;;;;;7.45;4.00;;;;;;;15.37;66.49;101796.56;4992431;28;20054;-46
2022/07/08 01:33:15;;;;;;;8.88;5.32;;;;;;;15.36;66.29;101790.47;4993910;28;20230;-47
2022/07/08 01:35:41;;;;;;;7.43;4.25;;;;;;;15.35;66.26;101788.72;4992973;28;20046;-46
2022/07/08 01:38:08;;;;;;;8.30;4.72;;;;;;;15.33;66.84;101782.59;4996660;28;20046;-45
2022/07/08 01:40:35;;;;;;;11.10;4.93;;;;;;;15.32;66.45;101778.25;4997784;28;20186;-45
2022/07/08 01:43:02;;;;;;;10.05;4.55;;;;;;;15.31;66.46;101789.56;4993264;28;20062;-49
2022/07/08 01:45:29;;;;;;;10.55;4.45;;;;;;;15.32;66.85;101785.22;4994018;28;20486;-45
2022/07/08 01:47:56;;;;;;;9.40;5.00;;;;;;;15.32;67.27;101786.09;4995699;28;20379;-45
2022/07/08 01:50:22;;;;;;;7.72;4.50;;;;;;;15.33;66.94;101789.59;4999917;28;20128;-47
2022/07/08 01:52:49;;;;;;;8.57;4.13;;;;;;;15.32;66.72;101778.25;4991627;28;20059;-46
2022/07/08 01:55:16;;;;;;;11.23;4.32;;;;;;;15.33;66.77;101785.22;4997202;28;20045;-44
2022/07/08 01:57:43;;;;;;;8.68;4.45;;;;;;;15.34;66.62;101786.09;4993686;28;20046;-45
2022/07/08 02:00:15;;;;;;;8.20;4.38;;;;;;;15.32;66.96;101779.97;4997153;28;20097;-45
2022/07/08 02:02:46;;;;;;;8.27;4.30;;;;;;;15.30;66.87;101779.97;4981167;28;20048;-46
2022/07/08 02:05:14;;;;;;;11.05;4.28;;;;;;;15.27;66.98;101775.63;4967107;28;20089;-46
2022/07/08 02:07:41;;;;;;;10.05;4.43;;;;;;;15.25;66.97;101781.69;4981271;28;20068;-48
2022/07/08 02:10:08;;;;;;;9.82;4.38;;;;;;;15.25;67.06;101781.69;4981056;28;20050;-44
2022/07/08 02:12:35;;;;;;;7.82;4.00;;;;;;;15.23;66.90;101780.84;4983646;28;20107;-47
2022/07/08 02:15:04;;;;;;;9.98;4.53;;;;;;;15.20;67.47;101772.97;4984402;28;20047;-45
2022/07/08 02:17:34;;;;;;;7.93;4.28;;;;;;;15.19;67.75;101766.88;4985233;28;20050;-47
2022/07/08 02:20:05;;;;;;;8.60;4.45;;;;;;;15.18;67.49;101774.69;4983054;28;20113;-47
2022/07/08 02:22:32;;;;;;;9.52;4.78;;;;;;;15.17;68.16;101768.63;4979940;28;20482;-45
2022/07/08 02:24:59;;;;;;;8.50;4.07;;;;;;;15.13;67.83;101767.72;4983016;28;20046;-45
2022/07/08 02:27:26;;;;;;;9.10;4.35;;;;;;;15.12;68.40;101760.75;4985525;28;20062;-45
2022/07/08 02:29:53;;;;;;;8.38;4.55;;;;;;;15.13;68.39;101757.28;4977329;28;20050;-48
2022/07/08 02:32:19;;;;;;;11.43;5.47;;;;;;;15.11;67.67;101769.47;4981501;28;20050;-45
2022/07/08 02:34:46;;;;;;;10.52;5.10;;;;;;;15.10;68.99;101772.91;4980153;28;20050;-45
2022/07/08 02:37:14;;;;;;;8.63;4.72;;;;;;;15.10;68.48;101769.44;4971216;28;20053;-45
2022/07/08 02:39:41;;;;;;;11.25;4.50;;;;;;;15.09;68.81;101765.06;4978287;28;20117;-46
2022/07/08 02:42:09;;;;;;;9.43;5.00;;;;;;;15.09;68.53;101760.72;4979612;28;20051;-45
2022/07/08 02:44:36;;;;;;;9.38;4.22;;;;;;;15.08;68.71;101756.38;4973453;28;20149;-47
2022/07/08 02:47:05;;;;;;;10.25;4.50;;;;;;;15.08;69.19;101764.22;4979609;28;20101;-46
2022/07/08 02:49:32;;;;;;;9.07;4.30;;;;;;;15.07;69.01;101758.97;4979609;28;20042;-45
2022/07/08 02:51:59;;;;;;;9.95;4.65;;;;;;;15.06;69.32;101755.50;4982342;28;20613;-47
2022/07/08 02:54:25;;;;;;;9.07;4.35;;;;;;;15.04;69.24;101754.63;4983005;28;20058;-46
2022/07/08 02:56:52;;;;;;;10.98;4.95;;;;;;;15.03;69.28;101760.72;4984651;28;20105;-48
2022/07/08 02:59:18;;;;;;;9.25;4.45;;;;;;;15.02;69.32;101766.78;4975545;28;20499;-45
2022/07/08 03:01:45;;;;;;;11.80;4.95;;;;;;;15.01;69.93;101767.63;4977623;28;20043;-46
2022/07/08 03:04:12;;;;;;;11.73;4.95;;;;;;;14.99;69.42;101765.03;4986003;28;20066;-46
2022/07/08 03:06:39;;;;;;;10.82;5.05;;;;;;;14.98;69.73;101772.84;4977356;28;20054;-46
2022/07/08 03:09:05;;;;;;;12.23;5.35;;;;;;;14.96;69.08;101759.78;4983809;28;20043;-46
2022/07/08 03:11:32;;;;;;;12.32;5.00;;;;;;;14.96;69.27;101765.00;4976568;28;20113;-46
2022/07/08 03:13:59;;;;;;;12.30;4.80;;;;;;;14.95;69.34;101765.88;4981902;28;20077;-45
2022/07/08 03:16:31;;;;;;;10.95;4.45;;;;;;;14.93;69.43;101764.97;4976430;28;20058;-45
2022/07/08 03:18:58;;;;;;;10.07;5.18;;;;;;;14.93;69.58;101769.34;4982730;28;20085;-45
2022/07/08 03:21:24;;;;;;;13.10;5.28;;;;;;;14.92;69.52;101768.44;4986199;28;20058;-48
2022/07/08 03:23:51;;;;;;;9.15;4.43;;;;;;;14.92;69.11;101772.81;4982242;28;20047;-45
2022/07/08 03:26:18;;;;;;;9.02;4.32;;;;;;;14.89;69.59;101774.53;4981218;28;20059;-45
2022/07/08 03:28:44;;;;;;;11.25;4.93;;;;;;;14.87;69.63;101781.47;4978737;28;20105;-46
2022/07/08 03:31:11;;;;;;;10.88;4.85;;;;;;;14.87;69.66;101784.09;4974299;28;20715;-44
2022/07/08 03:33:38;;;;;;;10.77;5.15;;;;;;;14.85;69.58;101783.19;4974756;28;20043;-46
2022/07/08 03:36:06;;;;;;;11.27;4.70;;;;;;;14.85;70.11;101783.19;4974566;28;20117;-44
2022/07/08 03:38:34;;;;;;;12.40;4.97;;;;;;;14.83;69.87;101784.91;4981629;28;20050;-46
2022/07/08 03:43:49;;;;;;;10.68;4.68;;;;;;;14.77;69.83;101774.44;4975389;28;20050;-45
2022/07/08 03:46:16;;;;;;;12.93;5.07;;;;;;;14.77;69.66;101787.47;4976148;28;20050;-49
2022/07/08 03:48:42;;;;;;;8.80;4.53;;;;;;;14.76;69.75;101783.97;4977225;28;20514;-47
2022/07/08 03:51:09;;;;;;;12.80;4.55;;;;;;;14.74;69.80;101780.47;4977888;28;20051;-46
2022/07/08 03:53:36;;;;;;;10.82;5.25;;;;;;;14.75;69.28;101786.56;4983254;28;20182;-45
2022/07/08 03:56:05;;;;;;;11.20;4.65;;;;;;;14.72;69.54;101787.41;4975913;28;20050;-46
2022/07/08 03:58:34;;;;;;;9.95;4.95;;;;;;;14.72;69.69;101791.72;4978219;28;20046;-46
2022/07/08 04:01:01;;;;;;;12.65;5.32;;;;;;;14.71;70.02;101790.00;4978133;28;20372;-46
2022/07/08 04:03:28;;;;;;;11.35;4.82;;;;;;;14.71;69.92;101795.22;4981395;28;20304;-47
2022/07/08 04:05:55;;;;;;;11.77;4.60;;;;;;;14.70;69.78;101791.75;4978663;28;20046;-46
2022/07/08 04:08:21;;;;;;;10.50;4.45;;;;;;;14.69;69.73;101791.75;4973718;28;20080;-45
2022/07/08 04:10:48;;;;;;;12.35;4.95;;;;;;;14.68;70.07;101789.97;4979541;28;20497;-45
2022/07/08 04:13:15;;;;;;;10.13;6.00;;;;;;;14.65;70.02;101796.91;4975753;28;20719;-44
2022/07/08 04:15:49;;;;;;;14.48;4.60;;;;;;;14.64;69.21;101800.41;4964712;28;20047;-45
2022/07/08 04:18:16;;;;;;;9.65;4.68;;;;;;;14.65;69.87;101802.13;4971646;28;20085;-46
2022/07/08 04:20:42;;;;;;;10.57;5.05;;;;;;;14.67;69.89;101806.47;4979584;28;20035;-48
2022/07/08 04:23:10;;;;;;;10.60;5.28;;;;;;;14.67;69.93;101809.09;4979618;28;20104;-48
2022/07/08 04:25:37;;;;;;;13.75;4.95;;;;;;;14.67;70.10;101803.88;4977313;28;20479;-45
2022/07/08 04:28:04;;;;;;;10.35;5.00;;;;;;;14.69;69.99;101807.38;4975403;28;20049;-46
2022/07/08 04:30:30;;;;;;;10.88;4.72;;;;;;;14.70;70.11;101814.34;4979044;28;20054;-46
2022/07/08 04:32:57;;;;;;;11.23;4.72;;;;;;;14.71;69.89;101816.97;4974657;28;20049;-46
2022/07/08 04:35:24;;;;;;;11.45;5.45;;;;;;;14.73;70.21;101809.16;4976153;28;20065;-45
2022/07/08 04:37:50;;;;;;;11.00;4.40;;;;;;;14.75;70.50;101808.31;4975706;28;20058;-45
2022/07/08 04:40:22;;;;;;;9.65;4.40;;;;;;;14.78;70.12;101817.91;4979218;28;20516;-45
2022/07/08 04:42:49;;;;;;;9.57;4.35;;;;;;;14.83;70.53;101815.34;4975960;28;20123;-47
2022/07/08 04:45:16;;;;;;;11.70;4.15;;;;;;;14.87;71.02;101818.00;4974867;28;20406;-46
2022/07/08 04:47:43;;;;;;;11.13;4.57;;;;;;;14.95;70.39;101819.78;4979668;28;20051;-45
2022/07/08 04:50:10;;;;;;;10.82;3.92;;;;;;;15.02;70.65;101812.00;4977197;28;20514;-45
2022/07/08 04:52:37;;;;;;;11.02;4.43;;;;;;;15.11;70.56;101815.53;4977166;28;20057;-47
2022/07/08 04:55:04;;;;;;;14.52;5.97;;;;;;;15.18;71.33;101826.88;4975606;28;20046;-48
2022/07/08 04:57:32;;;;;;;11.10;4.20;;;;;;;15.25;70.69;101823.47;4980394;28;20051;-44
2022/07/08 05:00:00;;;;;;;11.50;4.63;;;;;;;15.31;71.12;101823.50;4973312;28;20047;-45
2022/07/08 05:02:27;;;;;;;11.00;4.90;;;;;;;15.38;70.76;101817.47;4973828;28;20054;-45
2022/07/08 05:04:53;;;;;;;10.93;4.95;;;;;;;15.46;71.42;101821.81;4976727;28;20057;-46
2022/07/08 05:07:20;;;;;;;9.05;4.22;;;;;;;15.57;70.95;101825.38;4980551;28;20113;-47
2022/07/08 05:09:47;;;;;;;9.70;4.60;;;;;;;15.67;70.85;101821.94;4976040;28;20047;-46
2022/07/08 05:12:14;;;;;;;13.13;4.93;;;;;;;15.79;70.80;101820.25;4979178;28;20050;-46
2022/07/08 05:14:40;;;;;;;8.88;4.95;;;;;;;15.90;70.57;101829.00;4977565;28;20051;-46
2022/07/08 05:17:07;;;;;;;11.00;4.38;;;;;;;16.01;70.85;101836.06;4982926;28;20058;-46
2022/07/08 05:19:34;;;;;;;10.98;4.63;;;;;;;16.11;70.64;101837.81;4976793;28;20446;-48
2022/07/08 05:22:00;;;;;;;9.32;4.13;;;;;;;16.19;70.85;101830.84;4975225;28;20479;-47
2022/07/08 05:24:27;;;;;;;14.18;4.70;;;;;;;16.31;70.61;101829.13;4974754;28;20046;-47
2022/07/08 05:26:54;;;;;;;11.77;4.43;;;;;;;16.44;70.71;101830.03;4976612;28;20449;-45
2022/07/08 05:29:20;;;;;;;8.75;4.32;;;;;;;16.58;70.62;101832.66;4976628;28;20121;-47
2022/07/08 05:31:47;;;;;;;10.10;4.45;;;;;;;16.73;70.05;101833.53;4981412;28;20039;-46
2022/07/08 05:34:14;;;;;;;10.30;4.55;;;;;;;16.84;70.46;101831.78;4974048;28;20054;-47
2022/07/08 05:36:42;;;;;;;7.95;4.32;;;;;;;17.01;70.07;101836.13;4977852;28;20092;-49
2022/07/08 05:39:08;;;;;;;11.15;4.45;;;;;;;17.15;70.27;101834.41;4980338;28;20051;-46
2022/07/08 05:41:35;;;;;;;6.50;3.83;;;;;;;17.33;70.34;101837.88;4983408;28;20049;-45
2022/07/08 05:44:06;;;;;;;9.80;4.80;;;;;;;17.51;69.80;101836.06;4978659;28;20495;-45
2022/07/08 05:46:34;;;;;;;10.13;4.57;;;;;;;17.64;69.53;101836.91;4979977;28;20121;-45
2022/07/08 05:56:51;;;;;;;8.52;4.05;;;;;;;18.20;69.10;101848.03;5032978;28;20721;-46
2022/07/08 05:59:17;;;;;;;7.05;3.67;;;;;;;18.37;67.79;101849.66;4999874;28;20058;-49
2022/07/08 06:01:44;;;;;;;7.50;3.80;;;;;;;18.54;68.10;101851.31;4999410;28;20094;-49
2022/07/08 06:04:11;;;;;;;6.82;4.03;;;;;;;18.69;67.42;101845.97;5001368;28;20065;-46
2022/07/08 06:06:38;;;;;;;8.50;3.50;;;;;;;18.86;67.40;101851.06;4999673;28;20062;-49
2022/07/08 06:09:04;;;;;;;6.60;3.38;;;;;;;19.01;66.76;101849.16;5000174;28;20050;-50
2022/07/08 06:11:31;;;;;;;11.07;5.93;;;;;;;19.17;66.84;101857.81;5020204;28;20456;-47
2022/07/08 06:13:58;;;;;;;6.10;3.47;;;;;;;19.33;67.08;101852.41;5002455;28;20046;-45
2022/07/08 06:16:24;;;;;;;6.03;3.20;;;;;;;19.50;66.52;101858.34;5001436;28;20049;-50
2022/07/08 06:18:51;;;;;;;6.70;3.47;;;;;;;19.65;66.50;101869.56;5002415;28;20057;-45
2022/07/08 06:21:18;;;;;;;7.38;3.40;;;;;;;19.78;65.44;101860.66;5005701;28;20080;-48
2022/07/08 06:23:44;;;;;;;7.38;3.72;;;;;;;19.93;64.93;101863.09;5004080;28;20050;-47
2022/07/08 06:26:11;;;;;;;7.85;3.88;;;;;;;20.07;64.67;101866.47;5002250;28;20397;-47
2022/07/08 06:28:38;;;;;;;6.47;3.55;;;;;;;20.21;64.43;101863.63;4998752;28;20053;-46
2022/07/08 06:31:04;;;;;;;6.85;3.60;;;;;;;20.34;64.55;101880.13;4998451;28;20053;-48
2022/07/08 06:33:31;;;;;;;8.65;4.10;;;;;;;20.47;64.15;101875.50;4996386;28;20050;-45
2022/07/08 06:35:58;;;;;;;8.32;3.20;;;;;;;20.60;63.00;101875.34;4999627;28;20061;-48
2022/07/08 06:38:24;;;;;;;8.13;3.70;;;;;;;20.75;63.21;101883.00;4989273;28;20050;-47
2022/07/08 06:40:51;;;;;;;7.95;3.72;;;;;;;20.97;63.02;101882.66;4993679;28;20112;-46
2022/07/08 06:43:18;;;;;;;7.53;3.95;;;;;;;21.25;62.57;101879.56;5000300;28;20080;-45
2022/07/08 06:45:46;;;;;;;10.70;3.65;;;;;;;21.42;61.84;101873.09;4994011;28;20140;-47
2022/07/08 06:48:13;;;;;;;7.45;3.88;;;;;;;21.61;62.16;101875.38;4993666;28;20054;-48
2022/07/08 06:50:40;;;;;;;8.38;3.90;;;;;;;21.79;61.41;101875.00;5003764;28;20111;-45
2022/07/08 06:53:07;;;;;;;7.25;3.95;;;;;;;22.06;61.19;101880.56;4998666;28;20159;-50
2022/07/08 06:55:34;;;;;;;7.43;3.67;;;;;;;22.29;59.85;101879.19;5001132;28;20038;-46
2022/07/08 06:58:00;;;;;;;8.63;3.60;;;;;;;22.46;59.76;101881.44;4997461;28;20042;-48
2022/07/08 07:00:27;;;;;;;7.05;3.80;;;;;;;22.62;58.92;101877.63;5001245;28;20124;-49
2022/07/08 07:02:54;;;;;;;7.72;4.82;;;;;;;22.74;59.05;101879.97;4998489;28;20054;-47
2022/07/08 07:05:21;;;;;;;9.48;4.50;;;;;;;22.94;58.49;101881.22;4998330;28;20143;-47
2022/07/08 07:07:48;;;;;;;7.90;4.00;;;;;;;23.09;57.86;101886.09;4991109;28;20061;-46
2022/07/08 07:10:14;;;;;;;7.80;3.72;;;;;;;23.20;57.65;101890.25;4989854;28;20101;-47
2022/07/08 07:12:41;;;;;;;6.60;3.47;;;;;;;23.41;58.00;101887.94;4987817;28;20046;-48
2022/07/08 07:15:08;;;;;;;9.27;3.67;;;;;;;23.65;56.92;101882.88;4984105;28;20050;-47
2022/07/08 07:17:35;;;;;;;7.68;3.67;;;;;;;23.90;56.82;101887.44;4985003;28;20054;-46
2022/07/08 07:20:02;;;;;;;7.43;3.58;;;;;;;24.16;55.66;101878.75;4989150;28;20050;-46
2022/07/08 07:22:29;;;;;;;6.18;3.72;;;;;;;24.43;55.71;101880.56;4986476;28;20051;-47
2022/07/08 07:24:56;;;;;;;8.10;4.30;;;;;;;24.68;54.91;101885.09;4988217;28;20101;-46
2022/07/08 07:27:23;;;;;;;8.27;4.10;;;;;;;24.90;54.14;101885.25;4987481;28;20046;-49
2022/07/08 07:29:49;;;;;;;8.85;4.00;;;;;;;25.08;53.64;101889.03;4988514;28;20050;-49
2022/07/08 07:32:16;;;;;;;9.00;3.88;;;;;;;25.22;53.07;101888.56;4985981;28;20054;-49
2022/07/08 07:34:43;;;;;;;7.78;3.95;;;;;;;25.35;52.80;101886.34;4987586;28;20050;-49
2022/07/08 07:37:10;;;;;;;6.07;3.90;;;;;;;25.36;52.21;101890.72;4983614;28;20051;-46
2022/07/08 07:39:37;;;;;;;6.18;4.07;;;;;;;25.48;52.10;101885.88;4986810;28;20046;-49
2022/07/08 07:42:04;;;;;;;9.20;5.63;;;;;;;25.67;51.80;101889.59;4987654;28;20450;-47
2022/07/08 07:44:31;;;;;;;11.25;3.97;;;;;;;25.86;51.86;101902.19;4983388;28;20051;-47
2022/07/08 07:46:57;;;;;;;8.48;3.92;;;;;;;26.00;51.81;101890.19;4981520;28;20042;-49
2022/07/08 07:49:24;;;;;;;6.55;3.72;;;;;;;26.19;51.15;101898.28;4988960;28;20062;-48
2022/07/08 07:51:51;;;;;;;7.03;4.05;;;;;;;26.36;50.35;101900.31;4987313;28;20778;-49
2022/07/08 07:54:18;;;;;;;6.18;3.63;;;;;;;26.50;50.36;101902.41;4987361;28;20053;-49
2022/07/08 07:56:45;;;;;;;7.45;3.85;;;;;;;26.62;48.91;101906.34;4987294;28;20400;-50
2022/07/08 07:59:11;;;;;;;6.28;3.65;;;;;;;26.74;49.35;101912.94;4984910;28;20445;-54
2022/07/08 08:01:38;;;;;;;6.90;3.50;;;;;;;26.89;48.99;101908.78;4982042;28;20050;-49
2022/07/08 08:04:05;;;;;;;6.40;2.78;;;;;;;27.04;48.95;101898.44;4988244;28;20081;-49
2022/07/08 08:06:32;;;;;;;9.27;2.88;;;;;;;27.25;47.95;101904.59;4982350;28;20101;-45
2022/07/08 08:08:59;;;;;;;5.32;2.90;;;;;;;27.35;47.86;101899.72;4988037;28;20054;-54
2022/07/08 08:11:26;;;;;;;6.63;2.60;;;;;;;27.37;47.66;101903.19;4987715;28;20054;-49
2022/07/08 08:13:52;;;;;;;5.28;4.13;;;;;;;27.44;47.73;101890.47;4989215;28;21640;-49
2022/07/08 08:16:19;;;;;;;7.70;2.58;;;;;;;27.65;47.19;101896.66;4982728;28;20059;-46
2022/07/08 08:18:46;;;;;;;6.82;2.97;;;;;;;27.83;46.70;101888.75;4984136;28;20097;-47
2022/07/08 08:21:13;;;;;;;5.80;3.25;;;;;;;27.90;45.96;101884.88;4987561;28;23314;-51
2022/07/08 08:23:40;;;;;;;5.30;3.00;;;;;;;28.04;45.08;101894.88;4985391;28;20053;-48
2022/07/08 08:26:07;;;;;;;4.75;2.78;;;;;;;28.18;45.78;101894.22;4965599;28;20634;-52
2022/07/08 08:28:33;;;;;;;4.43;2.53;;;;;;;28.34;45.59;101888.16;4990035;28;20050;-46
2022/07/08 08:31:00;;;;;;;5.95;2.58;;;;;;;28.50;44.83;101887.41;4982785;28;20038;-49
2022/07/08 08:33:27;;;;;;;5.18;2.40;;;;;;;28.57;44.59;101892.34;4985715;28;20050;-48
2022/07/08 08:35:54;;;;;;;3.50;2.10;;;;;;;28.68;44.24;101885.59;4984255;28;20584;-50
2022/07/08 08:38:21;;;;;;;4.63;2.50;;;;;;;28.88;44.30;101892.59;4981015;28;20050;-50
2022/07/08 08:40:56;;;;;;;4.43;2.22;;;;;;;28.98;43.38;101882.34;4987941;28;20137;-49
2022/07/08 08:43:23;;;;;;;;;;;;;;;28.96;43.46;101879.75;4978098;28;20058;-52
2022/07/08 08:45:51;;;;;;;3.67;2.45;;;;;;;29.20;43.81;101876.72;4977498;28;19936;-48
2022/07/08 08:48:23;;;;;;;4.82;2.08;;;;;;;29.23;42.55;101876.56;4984227;28;20104;-51
2022/07/08 08:50:56;;;;;;;4.50;1.75;;;;;;;29.24;42.27;101872.94;4982857;28;20050;-48
2022/07/08 08:56:03;;;;;;;5.45;2.80;;;;;;;29.20;42.29;101868.72;5056510;27;21634;-48
2022/07/08 08:58:30;;;;;;;5.50;2.20;;;;;;;29.30;42.37;101871.75;5042860;28;20134;-47
2022/07/08 09:00:57;;;;;;;6.20;3.30;;;;;;;29.38;42.46;101879.38;5039178;28;20057;-47
2022/07/08 09:03:24;;;;;;;6.10;2.72;;;;;;;29.51;42.51;101875.06;5041078;28;20087;-49
2022/07/08 09:05:51;;;;;;;4.03;1.73;;;;;;;29.66;42.57;101872.56;5041195;28;20048;-51
2022/07/08 09:08:17;;;;;;;4.70;2.00;;;;;;;29.73;41.18;101860.59;5039543;28;20052;-53
2022/07/08 09:10:44;;;;;;;4.53;1.95;;;;;;;29.72;41.68;101863.34;5043524;28;20041;-46
2022/07/08 09:13:15;;;;;;;2.72;1.95;;;;;;;29.70;40.87;101874.09;5039240;28;20106;-50
2022/07/08 09:15:46;;;;;;;5.10;1.60;;;;;;;29.67;40.31;101866.25;5042470;28;20052;-49
2022/07/08 09:18:15;;;;;;;2.08;1.33;;;;;;;29.62;40.02;101865.66;5043356;28;20063;-48
2022/07/08 09:23:28;;;;;;;3.63;3.03;;;;;;;29.80;40.71;101868.25;5097183;27;20399;-49
2022/07/08 09:25:58;;;;;;;5.40;3.13;;;;;;;29.98;40.80;101866.34;5063098;28;20076;-47
2022/07/08 09:28:32;;;;;;;3.50;3.25;;;;;;;30.08;39.91;101866.66;5064888;28;20076;-49
2022/07/08 09:31:01;;;;;;;3.13;2.83;;;;;;;30.20;39.92;101871.38;5062173;28;20047;-49
2022/07/08 09:33:28;;;;;;;4.22;3.08;;;;;;;30.25;38.97;101869.28;5061743;28;20044;-49
2022/07/08 09:36:00;;;;;;;3.15;2.85;;;;;;;30.50;40.08;101872.34;5056749;28;20119;-47
2022/07/08 09:38:29;;;;;;;3.40;2.70;;;;;;;30.67;39.33;101860.63;5061593;28;20115;-45
2022/07/08 09:40:59;;;;;;;4.88;3.08;;;;;;;30.52;39.04;101863.25;5058895;28;20071;-44
2022/07/08 09:43:26;;;;;;;4.20;3.28;;;;;;;30.46;39.26;101860.94;5056237;28;20135;-45
2022/07/08 09:46:02;;;;;;;6.07;3.80;;;;;;;30.70;40.11;101859.59;5050290;28;20087;-49
2022/07/08 09:48:30;;;;;;;2.00;1.90;;;;;;;30.62;38.34;101860.03;5057226;28;20122;-47
2022/07/08 09:50:59;;;;;;;3.00;2.78;;;;;;;30.27;37.73;101851.34;5060498;28;20048;-48
2022/07/08 09:53:31;;;;;;;3.85;2.38;;;;;;;30.11;38.43;101846.00;5090701;28;20594;-48
2022/07/08 09:56:01;;;;;;;3.60;2.92;;;;;;;30.23;39.23;101849.78;5060841;28;20048;-47
2022/07/08 09:58:30;;;;;;;3.00;2.70;;;;;;;30.53;39.70;101845.44;5061994;28;20052;-48
2022/07/08 10:00:58;;;;;;;3.28;2.55;;;;;;;30.75;39.12;101858.38;5056198;28;20134;-47
2022/07/08 10:03:25;;;;;;;2.47;1.58;;;;;;;30.58;38.47;101847.81;5056181;28;20431;-48
2022/07/08 10:05:52;;;;;;;3.13;2.92;;;;;;;30.60;38.25;101852.09;5050293;28;20136;-49
2022/07/08 10:08:19;;;;;;;2.15;2.03;;;;;;;30.70;37.58;101852.41;5050888;28;20616;-46
2022/07/08 10:10:49;;;;;;;4.60;2.28;;;;;;;30.80;37.99;101857.25;5056996;28;20057;-46
2022/07/08 10:13:19;;;;;;;2.40;2.13;;;;;;;30.86;37.87;101856.88;5058954;28;20040;-46
2022/07/08 10:15:48;;;;;;;4.25;3.03;;;;;;;30.96;38.04;101852.69;5057671;28;20049;-47
2022/07/08 10:18:20;;;;;;;3.05;2.78;;;;;;;31.16;38.21;101847.91;5051038;28;20076;-46
2022/07/08 10:20:51;;;;;;;2.47;1.20;;;;;;;31.54;37.37;101841.97;5050328;28;20406;-47
2022/07/08 10:23:30;;;;;;;4.65;2.83;;;;;;;31.79;37.13;101843.09;5054223;28;20059;-49
2022/07/08 10:25:59;;;;;;;2.75;2.55;;;;;;;32.04;37.41;101833.47;5057916;28;20068;-47
2022/07/08 10:28:37;;;;;;;4.63;4.22;;;;;;;32.28;36.34;101834.63;5048744;28;20135;-46
2022/07/08 10:31:19;;;;;;;3.45;2.05;;;;;;;32.41;35.85;101837.28;5046418;28;20045;-46
2022/07/08 10:33:48;;;;;;;2.67;2.35;;;;;;;32.48;36.01;101838.63;5022468;28;20068;-47
2022/07/08 10:36:19;;;;;;;5.22;2.15;;;;;;;32.41;36.20;101834.63;5040911;28;20060;-46
2022/07/08 10:38:46;;;;;;;2.47;2.28;;;;;;;32.49;35.69;101831.47;5036227;28;20046;-45
2022/07/08 10:41:19;;;;;;;2.42;2.22;;;;;;;32.69;36.61;101833.63;5037627;28;20053;-46
2022/07/08 10:43:53;;;;;;;3.05;2.15;;;;;;;32.73;35.17;101834.28;5028958;28;20657;-47
2022/07/08 10:46:21;;;;;;;2.88;2.53;;;;;;;32.31;34.52;101829.88;5037549;28;20052;-46
2022/07/08 10:54:05;;;;;;;3.97;1.48;;;;;;;32.15;35.24;101811.28;5017359;28;20921;-45
2022/07/08 10:56:54;;;;;;;1.85;1.17;;;;;;;32.19;35.68;101825.38;4992755;28;20057;-49
2022/07/08 11:12:37;;;;;;;1.73;1.17;;;;;;;33.16;35.37;101829.56;5069935;27;20419;-48
2022/07/08 11:15:09;;;;;;;1.73;1.45;;;;;;;33.15;34.46;101817.09;5060209;28;20547;-45
2022/07/08 11:17:38;;;;;;;3.08;1.52;;;;;;;33.07;34.66;101821.19;5028043;28;20115;-46
2022/07/08 11:22:44;;;;;;;4.18;3.85;;;;;;;32.45;34.40;101809.31;5081540;27;20389;-46
2022/07/08 11:25:11;;;;;;;;;;;;;;;31.97;35.01;101813.38;5023836;28;20104;-47
2022/07/08 11:27:38;;;;;;;3.15;2.85;;;;;;;32.18;35.48;101808.41;5010208;28;19925;-47
2022/07/08 11:30:08;;;;;;;3.80;2.72;;;;;;;32.29;34.90;101810.34;4979872;28;20046;-47
2022/07/08 11:32:35;;;;;;;3.25;2.95;;;;;;;32.23;35.02;101800.06;4992850;28;20061;-46
2022/07/08 11:35:02;;;;;;;3.38;3.08;;;;;;;31.88;34.67;101811.31;5004366;28;20376;-47
2022/07/08 11:37:32;;;;;;;2.15;2.05;;;;;;;31.68;35.43;101800.09;4994944;28;20042;-46
2022/07/08 11:40:00;;;;;;;3.55;2.83;;;;;;;31.65;35.96;101811.00;4996054;28;20062;-47
2022/07/08 11:42:26;;;;;;;2.47;2.28;;;;;;;31.70;35.79;101808.84;4996089;28;20058;-45
2022/07/08 11:44:53;;;;;;;3.30;3.00;;;;;;;31.79;36.03;101805.59;4993220;28;20046;-47
2022/07/08 11:47:22;;;;;;;3.05;1.70;;;;;;;31.84;35.79;101804.44;4996758;28;20575;-46
2022/07/08 11:49:49;;;;;;;;;;;;;;;31.54;35.94;101804.50;4995542;28;20533;-46
2022/07/08 11:52:18;;;;;;;3.70;2.90;;;;;;;31.72;36.49;101812.31;4981662;28;19922;-46
2022/07/08 11:54:46;;;;;;;2.60;2.40;;;;;;;31.78;35.93;101798.50;4988628;28;20524;-46
2022/07/08 11:57:15;;;;;;;3.42;3.13;;;;;;;31.80;35.57;101804.63;4992901;28;20137;-46
2022/07/08 11:59:45;;;;;;;3.38;2.10;;;;;;;31.79;35.38;101802.91;4992739;28;20469;-45
2022/07/08 12:02:14;;;;;;;3.17;2.70;;;;;;;31.73;35.30;101803.31;4993259;28;20061;-46
2022/07/08 12:04:44;;;;;;;3.50;2.95;;;;;;;31.65;35.53;101800.28;4998303;28;20058;-50
2022/07/08 12:07:28;;;;;;;5.88;3.88;;;;;;;31.53;35.64;101802.78;4992747;28;20069;-46
2022/07/08 12:10:02;;;;;;;3.55;3.25;;;;;;;31.49;35.72;101795.91;4997270;28;20165;-49